createdAt,value
2019-04-29T00:00:46.276Z,8.20
2019-04-29T00:01:46.233Z,8.20
2019-04-29T00:03:46.183Z,8.17
2019-04-29T00:04:51.307Z,8.20
2019-04-29T00:06:46.124Z,8.19
2019-04-29T00:07:46.401Z,8.17
2019-04-29T00:08:46.071Z,8.21
2019-04-29T00:09:46.056Z,8.24
2019-04-29T00:10:46.020Z,8.19
2019-04-29T00:11:46.000Z,8.16
2019-04-29T00:12:45.983Z,8.17
2019-04-29T00:13:46.268Z,8.35
2019-04-29T00:14:46.041Z,8.29
2019-04-29T00:15:46.034Z,8.32
2019-04-29T00:18:45.845Z,8.23
2019-04-29T00:19:46.136Z,8.28
2019-04-29T00:21:45.786Z,8.31
2019-04-29T00:23:45.736Z,8.39
2019-04-29T00:24:45.946Z,8.37
2019-04-29T00:25:46.001Z,8.41
2019-04-29T00:27:45.955Z,8.44
2019-04-29T00:28:45.628Z,8.37
2019-04-29T00:29:45.809Z,8.29
2019-04-29T00:30:45.730Z,8.31
2019-04-29T00:31:45.821Z,8.37
2019-04-29T00:32:45.634Z,8.41
2019-04-29T00:33:45.513Z,8.37
2019-04-29T00:34:45.502Z,8.42
2019-04-29T00:35:45.500Z,8.53
2019-04-29T00:36:45.452Z,8.53
2019-04-29T00:37:45.680Z,8.39
2019-04-29T00:38:45.424Z,8.39
2019-04-29T00:39:45.384Z,8.37
2019-04-29T00:40:45.371Z,8.44
2019-04-29T00:41:45.439Z,8.38
2019-04-29T00:42:45.317Z,8.42
2019-04-29T00:43:45.599Z,8.44
2019-04-29T00:44:45.309Z,8.41
2019-04-29T00:45:45.247Z,8.46
2019-04-29T00:46:45.232Z,8.44
2019-04-29T00:48:45.187Z,8.39
2019-04-29T00:49:45.464Z,8.50
2019-04-29T00:50:45.143Z,8.50
2019-04-29T00:51:45.126Z,8.46
2019-04-29T00:53:45.074Z,8.52
2019-04-29T00:55:45.036Z,8.52
2019-04-29T00:56:45.315Z,8.47
2019-04-29T00:57:44.992Z,8.42
2019-04-29T00:58:44.990Z,8.50
2019-04-29T01:00:44.929Z,8.56
2019-04-29T01:01:44.903Z,8.53
2019-04-29T01:02:44.899Z,8.52
2019-04-29T01:03:45.171Z,8.50
2019-04-29T01:04:44.833Z,8.42
2019-04-29T01:05:44.807Z,8.47
2019-04-29T01:06:44.790Z,8.49
2019-04-29T01:07:44.769Z,8.37
2019-04-29T01:08:44.742Z,8.35
2019-04-29T01:09:44.721Z,8.46
2019-04-29T01:10:45.003Z,8.41
2019-04-29T01:11:44.677Z,8.44
2019-04-29T01:13:44.963Z,8.38
2019-04-29T01:14:44.613Z,8.42
2019-04-29T01:15:44.594Z,8.39
2019-04-29T01:16:44.570Z,8.44
2019-04-29T01:17:44.853Z,8.41
2019-04-29T01:19:44.506Z,8.44
2019-04-29T01:20:44.893Z,8.39
2019-04-29T01:21:44.466Z,8.41
2019-04-29T01:22:44.444Z,8.41
2019-04-29T01:23:44.420Z,8.46
2019-04-29T01:24:44.772Z,8.47
2019-04-29T01:25:44.552Z,8.41
2019-04-29T01:26:44.358Z,8.46
2019-04-29T01:27:44.327Z,8.44
2019-04-29T01:28:44.317Z,8.39
2019-04-29T01:30:44.260Z,8.42
2019-04-29T01:31:44.543Z,8.38
2019-04-29T01:32:44.322Z,8.39
2019-04-29T01:33:44.193Z,8.39
2019-04-29T01:34:44.174Z,8.38
2019-04-29T01:35:44.146Z,8.38
2019-04-29T01:36:44.140Z,8.39
2019-04-29T01:37:44.407Z,8.39
2019-04-29T01:38:44.086Z,8.52
2019-04-29T01:39:44.162Z,8.55
2019-04-29T01:40:44.034Z,8.49
2019-04-29T01:41:44.023Z,8.49
2019-04-29T01:42:44.025Z,8.52
2019-04-29T01:43:44.282Z,8.55
2019-04-29T01:44:44.155Z,8.49
2019-04-29T01:45:44.034Z,8.41
2019-04-29T01:46:43.916Z,8.39
2019-04-29T01:47:43.935Z,8.37
2019-04-29T01:48:43.867Z,8.47
2019-04-29T01:49:44.142Z,8.38
2019-04-29T01:50:43.820Z,8.41
2019-04-29T01:51:43.908Z,8.37
2019-04-29T01:52:43.781Z,8.42
2019-04-29T01:53:43.776Z,8.37
2019-04-29T01:54:43.834Z,8.50
2019-04-29T01:55:44.023Z,8.39
2019-04-29T01:56:43.697Z,8.41
2019-04-29T01:57:43.668Z,8.42
2019-04-29T01:58:43.764Z,8.39
2019-04-29T01:59:43.625Z,8.46
2019-04-29T02:00:43.610Z,8.49
2019-04-29T02:02:43.853Z,8.39
2019-04-29T02:03:43.532Z,8.38
2019-04-29T02:04:43.510Z,8.39
2019-04-29T02:05:43.496Z,8.38
2019-04-29T02:06:43.578Z,8.41
2019-04-29T02:07:43.542Z,8.46
2019-04-29T02:08:43.722Z,8.47
2019-04-29T02:09:43.701Z,8.35
2019-04-29T02:11:43.356Z,8.35
2019-04-29T02:12:43.335Z,8.34
2019-04-29T02:13:43.414Z,8.44
2019-04-29T02:14:43.585Z,8.41
2019-04-29T02:15:43.268Z,8.46
2019-04-29T02:18:43.201Z,8.44
2019-04-29T02:19:43.195Z,8.39
2019-04-29T02:20:43.256Z,8.47
2019-04-29T02:21:43.831Z,8.37
2019-04-29T02:22:43.118Z,8.38
2019-04-29T02:23:43.092Z,8.38
2019-04-29T02:25:43.053Z,8.39
2019-04-29T02:26:43.028Z,8.41
2019-04-29T02:27:43.013Z,8.35
2019-04-29T02:28:43.309Z,8.32
2019-04-29T02:30:42.942Z,8.38
2019-04-29T02:31:42.917Z,8.41
2019-04-29T02:32:43.638Z,8.42
2019-04-29T02:33:42.925Z,8.38
2019-04-29T02:34:42.962Z,8.31
2019-04-29T02:35:43.120Z,8.37
2019-04-29T02:36:42.810Z,8.38
2019-04-29T02:37:42.780Z,8.38
2019-04-29T02:38:42.846Z,8.32
2019-04-29T02:40:42.716Z,8.35
2019-04-29T02:41:42.695Z,8.41
2019-04-29T02:42:42.988Z,8.37
2019-04-29T02:43:42.648Z,8.38
2019-04-29T02:44:42.622Z,8.38
2019-04-29T02:45:42.604Z,8.39
2019-04-29T02:46:42.579Z,8.37
2019-04-29T02:47:42.658Z,8.39
2019-04-29T02:48:42.533Z,8.37
2019-04-29T02:49:42.813Z,8.37
2019-04-29T02:50:42.607Z,8.35
2019-04-29T02:51:42.475Z,8.42
2019-04-29T02:52:42.465Z,8.26
2019-04-29T02:53:42.423Z,8.31
2019-04-29T02:54:42.401Z,8.39
2019-04-29T02:55:42.482Z,8.34
2019-04-29T02:56:42.861Z,8.41
2019-04-29T02:57:42.446Z,8.41
2019-04-29T02:58:42.375Z,8.38
2019-04-29T02:59:42.348Z,8.38
2019-04-29T03:01:42.251Z,8.32
2019-04-29T03:02:42.229Z,8.44
2019-04-29T03:03:42.522Z,8.41
2019-04-29T03:04:42.906Z,8.32
2019-04-29T03:05:42.159Z,8.32
2019-04-29T03:06:42.133Z,8.35
2019-04-29T03:07:42.128Z,8.44
2019-04-29T03:08:42.202Z,8.34
2019-04-29T03:09:42.367Z,8.47
2019-04-29T03:10:42.062Z,8.35
2019-04-29T03:11:42.026Z,8.29
2019-04-29T03:12:42.018Z,8.39
2019-04-29T03:13:42.180Z,8.32
2019-04-29T03:14:41.967Z,8.31
2019-04-29T03:17:42.205Z,8.34
2019-04-29T03:18:41.891Z,8.28
2019-04-29T03:19:41.852Z,8.31
2019-04-29T03:21:41.802Z,8.28
2019-04-29T03:22:41.784Z,8.31
2019-04-29T03:23:42.059Z,8.28
2019-04-29T03:24:41.735Z,8.37
2019-04-29T03:25:41.813Z,8.37
2019-04-29T03:26:41.687Z,8.35
2019-04-29T03:27:41.685Z,8.29
2019-04-29T03:28:41.653Z,8.26
2019-04-29T03:29:41.924Z,8.20
2019-04-29T03:30:41.605Z,8.31
2019-04-29T03:31:41.581Z,8.31
2019-04-29T03:32:41.557Z,8.31
2019-04-29T03:33:41.644Z,8.24
2019-04-29T03:34:41.622Z,8.26
2019-04-29T03:35:41.789Z,8.32
2019-04-29T03:36:41.475Z,8.35
2019-04-29T03:37:41.496Z,8.44
2019-04-29T03:38:41.423Z,8.39
2019-04-29T03:39:41.406Z,8.34
2019-04-29T03:40:41.391Z,8.29
2019-04-29T03:41:41.361Z,8.38
2019-04-29T03:42:41.637Z,8.41
2019-04-29T03:43:41.464Z,8.35
2019-04-29T03:44:41.309Z,8.31
2019-04-29T03:45:41.273Z,8.32
2019-04-29T03:46:41.247Z,8.44
2019-04-29T03:47:41.238Z,8.46
2019-04-29T03:48:41.215Z,8.35
2019-04-29T03:49:41.478Z,8.46
2019-04-29T03:50:41.177Z,8.37
2019-04-29T03:52:41.163Z,8.38
2019-04-29T03:53:41.092Z,8.38
2019-04-29T03:54:41.073Z,8.44
2019-04-29T03:55:41.163Z,8.44
2019-04-29T03:56:41.336Z,8.38
2019-04-29T03:58:40.987Z,8.41
2019-04-29T03:59:41.262Z,8.44
2019-04-29T04:00:44.106Z,8.46
2019-04-29T04:01:40.964Z,8.42
2019-04-29T04:02:40.919Z,8.46
2019-04-29T04:03:41.175Z,8.42
2019-04-29T04:04:40.843Z,8.41
2019-04-29T04:05:40.818Z,8.49
2019-04-29T04:06:40.809Z,8.38
2019-04-29T04:07:40.785Z,8.39
2019-04-29T04:08:40.773Z,8.39
2019-04-29T04:09:40.834Z,8.44
2019-04-29T04:10:41.027Z,8.41
2019-04-29T04:11:40.695Z,8.41
2019-04-29T04:12:40.682Z,8.41
2019-04-29T04:13:40.747Z,8.38
2019-04-29T04:14:40.725Z,8.38
2019-04-29T04:15:40.601Z,8.37
2019-04-29T04:16:40.680Z,8.39
2019-04-29T04:17:40.870Z,8.38
2019-04-29T04:18:40.536Z,8.38
2019-04-29T04:19:40.535Z,8.39
2019-04-29T04:20:40.507Z,8.37
2019-04-29T04:21:40.465Z,8.41
2019-04-29T04:22:40.457Z,8.50
2019-04-29T04:23:40.423Z,8.39
2019-04-29T04:24:40.713Z,8.50
2019-04-29T04:25:40.391Z,8.46
2019-04-29T04:26:40.362Z,8.42
2019-04-29T04:27:40.339Z,8.52
2019-04-29T04:28:40.327Z,8.53
2019-04-29T04:29:40.614Z,8.52
2019-04-29T04:30:40.857Z,8.56
2019-04-29T04:31:40.254Z,8.50
2019-04-29T04:32:40.224Z,8.59
2019-04-29T04:33:40.228Z,8.59
2019-04-29T04:34:40.203Z,8.60
2019-04-29T04:35:40.158Z,8.50
2019-04-29T04:36:40.464Z,8.53
2019-04-29T04:37:40.121Z,8.60
2019-04-29T04:38:40.145Z,8.62
2019-04-29T04:39:40.106Z,8.65
2019-04-29T04:40:40.059Z,8.53
2019-04-29T04:41:40.028Z,8.62
2019-04-29T04:42:40.273Z,8.67
2019-04-29T04:43:40.231Z,8.70
2019-04-29T04:44:40.027Z,8.68
2019-04-29T04:45:40.480Z,8.68
2019-04-29T04:46:40.011Z,8.70
2019-04-29T04:47:39.911Z,8.70
2019-04-29T04:49:40.262Z,8.70
2019-04-29T04:50:39.913Z,8.70
2019-04-29T04:51:39.809Z,8.71
2019-04-29T04:52:39.989Z,8.70
2019-04-29T04:56:40.568Z,8.80
2019-04-29T04:58:44.270Z,8.83
2019-04-29T04:59:42.317Z,8.90
2019-04-29T05:00:40.969Z,8.78
2019-04-29T05:01:39.958Z,8.81
2019-04-29T05:02:39.627Z,8.93
2019-04-29T05:03:39.737Z,8.90
2019-04-29T05:04:39.828Z,8.86
2019-04-29T05:05:45.822Z,8.92
2019-04-29T05:06:39.491Z,8.86
2019-04-29T05:07:39.473Z,8.92
2019-04-29T05:08:39.449Z,8.93
2019-04-29T05:09:39.417Z,8.95
2019-04-29T05:10:39.403Z,8.90
2019-04-29T05:12:39.657Z,8.95
2019-04-29T05:13:39.332Z,8.98
2019-04-29T05:14:39.314Z,8.98
2019-04-29T05:15:39.310Z,8.95
2019-04-29T05:17:39.246Z,9.08
2019-04-29T05:18:39.579Z,9.11
2019-04-29T05:19:40.392Z,9.06
2019-04-29T05:20:39.531Z,9.11
2019-04-29T05:21:39.475Z,9.12
2019-04-29T05:22:39.341Z,9.14
2019-04-29T05:23:41.656Z,9.09
2019-04-29T05:24:39.800Z,9.09
2019-04-29T05:25:39.354Z,9.27
2019-04-29T05:26:39.457Z,9.23
2019-04-29T05:27:39.077Z,9.24
2019-04-29T05:28:39.059Z,9.22
2019-04-29T05:29:38.994Z,9.29
2019-04-29T05:30:39.324Z,9.29
2019-04-29T05:33:39.221Z,9.27
2019-04-29T05:34:41.822Z,9.30
2019-04-29T05:35:40.320Z,9.41
2019-04-29T05:36:39.363Z,9.41
2019-04-29T05:37:38.818Z,9.37
2019-04-29T05:38:38.808Z,9.44
2019-04-29T05:39:38.794Z,9.50
2019-04-29T05:41:38.756Z,9.55
2019-04-29T05:42:38.913Z,9.47
2019-04-29T05:43:38.726Z,9.63
2019-04-29T05:45:41.506Z,9.60
2019-04-29T05:46:39.380Z,9.60
2019-04-29T05:47:38.628Z,9.60
2019-04-29T05:48:39.299Z,9.63
2019-04-29T05:49:41.604Z,9.65
2019-04-29T05:50:38.556Z,9.57
2019-04-29T05:51:38.527Z,9.63
2019-04-29T05:52:39.626Z,9.66
2019-04-29T05:53:38.489Z,9.72
2019-04-29T05:55:38.460Z,9.63
2019-04-29T05:56:38.418Z,9.62
2019-04-29T05:57:38.403Z,9.60
2019-04-29T05:58:39.603Z,9.60
2019-04-29T05:59:38.355Z,9.65
2019-04-29T06:00:38.437Z,9.63
2019-04-29T06:01:38.322Z,9.59
2019-04-29T06:02:38.843Z,9.62
2019-04-29T06:03:39.765Z,9.69
2019-04-29T06:04:38.647Z,9.59
2019-04-29T06:05:38.267Z,9.67
2019-04-29T06:07:38.182Z,9.63
2019-04-29T06:09:38.161Z,9.66
2019-04-29T06:10:41.774Z,9.62
2019-04-29T06:11:38.109Z,9.67
2019-04-29T06:12:39.314Z,9.62
2019-04-29T06:13:38.096Z,9.66
2019-04-29T06:14:38.125Z,9.65
2019-04-29T06:15:38.016Z,9.72
2019-04-29T06:16:38.314Z,9.63
2019-04-29T06:17:40.229Z,9.73
2019-04-29T06:18:40.800Z,9.72
2019-04-29T06:19:39.434Z,9.66
2019-04-29T06:20:38.099Z,9.73
2019-04-29T06:21:37.890Z,9.77
2019-04-29T06:23:38.183Z,9.65
2019-04-29T06:25:37.804Z,9.75
2019-04-29T06:26:37.787Z,9.59
2019-04-29T06:27:37.768Z,9.69
2019-04-29T06:28:37.751Z,9.57
2019-04-29T06:29:38.027Z,9.59
2019-04-29T06:30:40.556Z,9.55
2019-04-29T06:32:37.685Z,9.54
2019-04-29T06:33:38.697Z,9.57
2019-04-29T06:35:37.855Z,9.57
2019-04-29T06:36:38.069Z,9.60
2019-04-29T06:38:37.632Z,9.47
2019-04-29T06:39:37.554Z,9.47
2019-04-29T06:40:37.503Z,9.52
2019-04-29T06:41:40.733Z,9.47
2019-04-29T06:42:37.700Z,9.50
2019-04-29T06:43:38.465Z,9.52
2019-04-29T06:44:37.431Z,9.50
2019-04-29T06:45:37.484Z,9.50
2019-04-29T06:47:37.449Z,9.54
2019-04-29T06:48:37.394Z,9.62
2019-04-29T06:49:37.296Z,9.65
2019-04-29T06:50:37.579Z,9.65
2019-04-29T06:51:37.311Z,9.59
2019-04-29T06:52:37.250Z,9.57
2019-04-29T06:53:37.212Z,9.66
2019-04-29T06:54:37.213Z,9.62
2019-04-29T06:55:37.204Z,9.65
2019-04-29T06:57:37.169Z,9.63
2019-04-29T06:59:37.839Z,9.66
2019-04-29T07:00:37.069Z,9.65
2019-04-29T07:01:37.556Z,9.69
2019-04-29T07:02:37.025Z,9.72
2019-04-29T07:03:37.007Z,9.72
2019-04-29T07:04:39.542Z,9.73
2019-04-29T07:05:37.280Z,9.70
2019-04-29T07:06:36.966Z,9.66
2019-04-29T07:07:36.939Z,9.73
2019-04-29T07:09:36.886Z,9.69
2019-04-29T07:10:37.062Z,9.67
2019-04-29T07:11:38.381Z,9.70
2019-04-29T07:12:37.112Z,9.70
2019-04-29T07:13:36.824Z,9.67
2019-04-29T07:15:37.051Z,9.80
2019-04-29T07:16:36.729Z,9.73
2019-04-29T07:17:41.173Z,9.72
2019-04-29T07:18:40.398Z,9.72
2019-04-29T07:19:36.665Z,9.75
2019-04-29T07:20:37.009Z,9.78
2019-04-29T07:22:36.678Z,9.83
2019-04-29T07:23:36.632Z,9.73
2019-04-29T07:24:36.884Z,9.84
2019-04-29T07:25:36.557Z,9.81
2019-04-29T07:27:42.983Z,9.88
2019-04-29T07:28:36.537Z,9.90
2019-04-29T07:29:38.162Z,9.88
2019-04-29T07:32:36.390Z,9.83
2019-04-29T07:33:36.485Z,9.88
2019-04-29T07:34:39.250Z,9.80
2019-04-29T07:35:38.199Z,9.84
2019-04-29T07:36:36.379Z,9.94
2019-04-29T07:37:36.385Z,9.85
2019-04-29T07:38:41.460Z,9.85
2019-04-29T07:39:36.259Z,9.98
2019-04-29T07:40:38.880Z,9.87
2019-04-29T07:41:36.224Z,9.88
2019-04-29T07:42:36.501Z,9.94
2019-04-29T07:43:38.522Z,9.93
2019-04-29T07:44:43.779Z,9.96
2019-04-29T07:45:44.113Z,9.93
2019-04-29T07:46:55.119Z,9.96
2019-04-29T07:47:36.091Z,9.87
2019-04-29T07:48:36.811Z,9.94
2019-04-29T07:49:36.044Z,9.93
2019-04-29T07:50:36.018Z,9.96
2019-04-29T07:51:39.552Z,9.88
2019-04-29T07:52:35.975Z,9.96
2019-04-29T07:53:44.778Z,9.98
2019-04-29T07:55:36.214Z,9.96
2019-04-29T07:56:37.800Z,9.99
2019-04-29T07:58:35.846Z,10.05
2019-04-29T07:59:38.387Z,9.99
2019-04-29T08:00:35.836Z,9.98
2019-04-29T08:01:35.800Z,9.99
2019-04-29T08:02:36.077Z,9.96
2019-04-29T08:03:35.754Z,9.98
2019-04-29T08:05:35.714Z,10.01
2019-04-29T08:06:38.274Z,10.06
2019-04-29T08:07:35.803Z,10.09
2019-04-29T08:09:39.900Z,10.20
2019-04-29T08:10:37.022Z,10.20
2019-04-29T08:11:35.672Z,10.18
2019-04-29T08:12:35.549Z,10.18
2019-04-29T08:13:35.532Z,10.18
2019-04-29T08:14:35.508Z,10.27
2019-04-29T08:16:35.772Z,10.39
2019-04-29T08:17:35.482Z,10.35
2019-04-29T08:18:35.437Z,10.21
2019-04-29T08:20:39.610Z,10.23
2019-04-29T08:21:35.379Z,10.20
2019-04-29T08:22:35.369Z,10.17
2019-04-29T08:23:41.024Z,10.23
2019-04-29T08:24:37.444Z,10.35
2019-04-29T08:25:35.300Z,10.28
2019-04-29T08:26:38.272Z,10.31
2019-04-29T08:27:40.733Z,10.34
2019-04-29T08:28:35.276Z,10.34
2019-04-29T08:29:37.179Z,10.38
2019-04-29T08:30:35.492Z,10.34
2019-04-29T08:31:35.177Z,10.39
2019-04-29T08:32:36.285Z,10.36
2019-04-29T08:33:35.119Z,10.36
2019-04-29T08:34:35.094Z,10.30
2019-04-29T08:35:36.762Z,10.39
2019-04-29T08:36:35.498Z,10.38
2019-04-29T08:37:35.354Z,10.34
2019-04-29T08:38:35.023Z,10.35
2019-04-29T08:39:35.022Z,10.31
2019-04-29T08:40:34.967Z,10.36
2019-04-29T08:41:34.957Z,10.42
2019-04-29T08:42:37.296Z,10.43
2019-04-29T08:43:35.217Z,10.42
2019-04-29T08:44:34.889Z,10.39
2019-04-29T08:45:39.039Z,10.42
2019-04-29T08:46:34.908Z,10.45
2019-04-29T08:47:34.879Z,10.43
2019-04-29T08:49:34.796Z,10.49
2019-04-29T08:50:35.103Z,10.49
2019-04-29T08:51:34.743Z,10.54
2019-04-29T08:52:34.730Z,10.49
2019-04-29T08:53:34.712Z,10.54
2019-04-29T08:55:36.507Z,10.52
2019-04-29T08:56:34.946Z,10.49
2019-04-29T08:57:36.580Z,10.57
2019-04-29T08:58:34.595Z,10.62
2019-04-29T08:59:34.586Z,10.61
2019-04-29T09:00:34.573Z,10.52
2019-04-29T09:01:35.791Z,10.54
2019-04-29T09:02:35.838Z,10.49
2019-04-29T09:03:40.338Z,10.49
2019-04-29T09:04:35.340Z,10.52
2019-04-29T09:05:34.460Z,10.57
2019-04-29T09:06:34.537Z,10.54
2019-04-29T09:07:34.425Z,10.57
2019-04-29T09:08:35.051Z,10.54
2019-04-29T09:10:36.790Z,10.55
2019-04-29T09:11:34.359Z,10.58
2019-04-29T09:12:34.324Z,10.61
2019-04-29T09:13:34.298Z,10.49
2019-04-29T09:14:34.582Z,10.52
2019-04-29T09:15:34.281Z,10.54
2019-04-29T09:16:34.316Z,10.52
2019-04-29T09:17:34.235Z,10.58
2019-04-29T09:18:34.198Z,10.57
2019-04-29T09:21:35.363Z,10.60
2019-04-29T09:22:34.669Z,10.55
2019-04-29T09:23:34.398Z,10.62
2019-04-29T09:25:34.101Z,10.60
2019-04-29T09:26:34.037Z,10.62
2019-04-29T09:27:34.221Z,10.61
2019-04-29T09:28:33.987Z,10.72
2019-04-29T09:29:33.967Z,10.70
2019-04-29T09:32:34.091Z,10.67
2019-04-29T09:33:34.186Z,10.65
2019-04-29T09:34:33.881Z,10.70
2019-04-29T09:36:33.844Z,10.65
2019-04-29T09:37:34.498Z,10.75
2019-04-29T09:38:36.969Z,10.82
2019-04-29T09:39:43.164Z,10.78
2019-04-29T09:40:33.796Z,10.75
2019-04-29T09:41:35.048Z,10.83
2019-04-29T09:43:33.675Z,10.79
2019-04-29T09:44:35.320Z,10.75
2019-04-29T09:45:33.703Z,10.72
2019-04-29T09:46:34.559Z,10.73
2019-04-29T09:47:34.019Z,10.73
2019-04-29T09:48:33.587Z,10.75
2019-04-29T09:50:34.167Z,10.78
2019-04-29T09:51:33.614Z,10.80
2019-04-29T09:52:33.492Z,10.75
2019-04-29T09:53:33.778Z,10.75
2019-04-29T09:54:33.456Z,10.75
2019-04-29T09:55:35.569Z,10.75
2019-04-29T09:56:34.829Z,10.78
2019-04-29T09:57:33.390Z,10.82
2019-04-29T09:59:33.356Z,10.83
2019-04-29T10:00:36.232Z,10.78
2019-04-29T10:01:33.327Z,10.73
2019-04-29T10:04:33.248Z,10.75
2019-04-29T10:05:33.230Z,10.78
2019-04-29T10:06:33.215Z,10.80
2019-04-29T10:07:33.490Z,10.83
2019-04-29T10:08:33.488Z,10.90
2019-04-29T10:09:33.152Z,10.80
2019-04-29T10:10:33.131Z,10.86
2019-04-29T10:12:33.085Z,10.87
2019-04-29T10:13:33.076Z,10.83
2019-04-29T10:14:33.319Z,10.78
2019-04-29T10:15:33.226Z,10.87
2019-04-29T10:16:35.974Z,10.87
2019-04-29T10:18:33.060Z,11.01
2019-04-29T10:19:33.234Z,10.93
2019-04-29T10:20:32.928Z,10.83
2019-04-29T10:21:32.931Z,10.85
2019-04-29T10:22:32.881Z,10.87
2019-04-29T10:23:32.929Z,10.87
2019-04-29T10:24:32.840Z,11.00
2019-04-29T10:25:33.328Z,10.85
2019-04-29T10:26:32.818Z,10.95
2019-04-29T10:27:32.785Z,10.97
2019-04-29T10:28:32.771Z,10.97
2019-04-29T10:29:32.901Z,10.85
2019-04-29T10:30:33.112Z,10.93
2019-04-29T10:31:33.106Z,10.90
2019-04-29T10:33:32.667Z,10.97
2019-04-29T10:34:33.062Z,11.03
2019-04-29T10:35:32.709Z,10.97
2019-04-29T10:36:32.602Z,10.98
2019-04-29T10:37:33.195Z,10.98
2019-04-29T10:38:32.872Z,10.86
2019-04-29T10:39:32.547Z,10.91
2019-04-29T10:40:32.597Z,10.97
2019-04-29T10:41:36.125Z,10.98
2019-04-29T10:42:32.480Z,11.01
2019-04-29T10:43:35.683Z,10.94
2019-04-29T10:44:32.450Z,10.98
2019-04-29T10:45:32.448Z,11.03
2019-04-29T10:46:32.554Z,10.98
2019-04-29T10:47:32.387Z,11.03
2019-04-29T10:48:32.367Z,10.97
2019-04-29T10:49:34.712Z,11.01
2019-04-29T10:50:32.316Z,10.98
2019-04-29T10:51:32.324Z,10.98
2019-04-29T10:52:34.445Z,10.98
2019-04-29T10:53:32.375Z,11.00
2019-04-29T10:54:32.245Z,11.08
2019-04-29T10:55:32.207Z,11.12
2019-04-29T10:57:32.179Z,11.03
2019-04-29T10:59:35.972Z,11.09
2019-04-29T11:00:32.312Z,11.12
2019-04-29T11:01:32.149Z,11.11
2019-04-29T11:02:32.394Z,11.12
2019-04-29T11:03:32.062Z,11.12
2019-04-29T11:04:36.102Z,11.16
2019-04-29T11:05:31.998Z,11.13
2019-04-29T11:06:35.699Z,11.12
2019-04-29T11:07:32.044Z,11.15
2019-04-29T11:08:33.805Z,11.20
2019-04-29T11:09:32.026Z,11.12
2019-04-29T11:10:32.088Z,11.09
2019-04-29T11:11:31.950Z,11.11
2019-04-29T11:12:31.905Z,11.18
2019-04-29T11:13:31.958Z,11.19
2019-04-29T11:14:33.206Z,11.12
2019-04-29T11:15:32.666Z,11.11
2019-04-29T11:16:46.183Z,11.11
2019-04-29T11:18:31.985Z,11.08
2019-04-29T11:19:35.032Z,11.12
2019-04-29T11:20:33.303Z,11.18
2019-04-29T11:21:32.018Z,11.19
2019-04-29T11:22:34.065Z,11.23
2019-04-29T11:23:31.830Z,11.18
2019-04-29T11:24:32.483Z,11.33
2019-04-29T11:26:31.663Z,11.37
2019-04-29T11:28:31.844Z,11.45
2019-04-29T11:29:31.561Z,11.54
2019-04-29T11:30:34.951Z,11.52
2019-04-29T11:31:31.541Z,11.58
2019-04-29T11:32:31.490Z,11.64
2019-04-29T11:33:31.456Z,11.77
2019-04-29T11:34:33.259Z,11.71
2019-04-29T11:35:32.127Z,11.77
2019-04-29T11:36:34.989Z,11.74
2019-04-29T11:37:31.477Z,11.73
2019-04-29T11:38:33.333Z,11.73
2019-04-29T11:39:31.340Z,11.77
2019-04-29T11:40:43.214Z,11.91
2019-04-29T11:41:31.298Z,11.85
2019-04-29T11:43:31.270Z,11.71
2019-04-29T11:45:33.765Z,11.74
2019-04-29T11:46:31.648Z,11.77
2019-04-29T11:47:31.583Z,11.76
2019-04-29T11:48:31.213Z,11.80
2019-04-29T11:49:31.345Z,12.05
2019-04-29T11:50:31.219Z,12.11
2019-04-29T11:51:34.108Z,12.21
2019-04-29T11:52:31.208Z,12.38
2019-04-29T11:53:31.371Z,12.46
2019-04-29T11:54:31.086Z,12.47
2019-04-29T11:55:35.527Z,12.43
2019-04-29T11:56:31.587Z,12.28
2019-04-29T11:57:40.668Z,12.30
2019-04-29T11:58:31.007Z,12.43
2019-04-29T11:59:31.415Z,12.26
2019-04-29T12:00:31.409Z,12.30
2019-04-29T12:01:38.615Z,12.46
2019-04-29T12:02:44.817Z,12.66
2019-04-29T12:03:32.477Z,12.63
2019-04-29T12:04:33.549Z,12.48
2019-04-29T12:05:31.558Z,12.62
2019-04-29T12:06:33.645Z,12.54
2019-04-29T12:07:32.535Z,12.73
2019-04-29T12:08:30.948Z,12.63
2019-04-29T12:10:30.862Z,12.54
2019-04-29T12:11:35.838Z,12.63
2019-04-29T12:12:30.737Z,12.61
2019-04-29T12:13:30.767Z,12.61
2019-04-29T12:14:33.778Z,12.59
2019-04-29T12:15:30.671Z,12.58
2019-04-29T12:16:30.713Z,12.44
2019-04-29T12:19:32.148Z,12.51
2019-04-29T12:20:32.320Z,12.55
2019-04-29T12:22:31.086Z,12.68
2019-04-29T12:23:30.558Z,12.87
2019-04-29T12:25:30.597Z,13.55
2019-04-29T12:26:35.550Z,13.46
2019-04-29T12:28:31.000Z,13.24
2019-04-29T12:29:30.449Z,13.04
2019-04-29T12:30:34.712Z,12.88
2019-04-29T12:31:30.449Z,13.04
2019-04-29T12:32:30.475Z,12.90
2019-04-29T12:33:32.520Z,12.96
2019-04-29T12:34:34.417Z,13.13
2019-04-29T12:36:30.877Z,13.39
2019-04-29T12:37:34.246Z,13.38
2019-04-29T12:38:39.792Z,13.43
2019-04-29T12:39:42.831Z,13.39
2019-04-29T12:40:30.241Z,13.32
2019-04-29T12:41:31.476Z,13.29
2019-04-29T12:42:30.231Z,13.38
2019-04-29T12:44:39.667Z,13.49
2019-04-29T12:45:30.239Z,13.55
2019-04-29T12:46:30.763Z,13.71
2019-04-29T12:47:30.179Z,13.91
2019-04-29T12:48:30.122Z,13.91
2019-04-29T12:50:30.088Z,13.79
2019-04-29T12:51:30.117Z,13.83
2019-04-29T12:52:30.061Z,13.61
2019-04-29T12:53:30.346Z,13.73
2019-04-29T12:54:30.318Z,13.88
2019-04-29T12:55:44.067Z,14.26
2019-04-29T12:56:29.992Z,14.30
2019-04-29T12:58:30.071Z,14.92
2019-04-29T12:59:30.582Z,15.14
2019-04-29T13:02:30.197Z,14.95
2019-04-29T13:03:31.029Z,14.79
2019-04-29T13:04:29.964Z,14.56
2019-04-29T13:05:29.989Z,14.58
2019-04-29T13:06:39.003Z,14.66
2019-04-29T13:07:29.869Z,14.82
2019-04-29T13:08:30.198Z,14.70
2019-04-29T13:09:29.784Z,15.05
2019-04-29T13:10:30.123Z,15.15
2019-04-29T13:11:40.912Z,15.17
2019-04-29T13:12:30.375Z,15.60
2019-04-29T13:14:33.260Z,15.20
2019-04-29T13:15:29.704Z,15.38
2019-04-29T13:16:29.789Z,15.20
2019-04-29T13:17:30.461Z,15.07
2019-04-29T13:18:29.703Z,14.95
2019-04-29T13:19:30.994Z,14.71
2019-04-29T13:20:29.942Z,14.61
2019-04-29T13:21:29.619Z,14.64
2019-04-29T13:22:29.640Z,14.61
2019-04-29T13:24:29.654Z,14.59
2019-04-29T13:25:29.577Z,14.49
2019-04-29T13:26:33.368Z,14.74
2019-04-29T13:27:36.076Z,14.95
2019-04-29T13:28:34.185Z,14.97
2019-04-29T13:29:32.182Z,14.90
2019-04-29T13:30:29.560Z,15.29
2019-04-29T13:31:38.003Z,15.48
2019-04-29T13:32:31.198Z,15.69
2019-04-29T13:33:29.748Z,15.38
2019-04-29T13:34:32.865Z,15.33
2019-04-29T13:35:29.445Z,15.07
2019-04-29T13:36:29.428Z,15.22
2019-04-29T13:39:39.011Z,15.33
2019-04-29T13:40:32.998Z,15.95
2019-04-29T13:42:29.391Z,16.82
2019-04-29T13:43:35.032Z,17.34
2019-04-29T13:44:29.846Z,17.68
2019-04-29T13:45:29.295Z,17.72
2019-04-29T13:47:31.040Z,17.90
2019-04-29T13:49:29.359Z,17.66
2019-04-29T13:50:39.487Z,18.01
2019-04-29T13:51:36.034Z,17.91
2019-04-29T13:52:29.216Z,17.46
2019-04-29T13:54:29.307Z,17.45
2019-04-29T13:56:39.250Z,17.39
2019-04-29T13:57:29.506Z,17.07
2019-04-29T13:58:29.430Z,16.94
2019-04-29T13:59:29.139Z,17.53
2019-04-29T14:00:29.108Z,18.13
2019-04-29T14:01:33.249Z,17.65
2019-04-29T14:02:33.400Z,17.79
2019-04-29T14:03:29.075Z,17.97
2019-04-29T14:04:29.067Z,18.28
2019-04-29T14:05:32.490Z,18.24
2019-04-29T14:06:29.042Z,17.90
2019-04-29T14:07:29.048Z,18.30
2019-04-29T14:08:30.532Z,18.28
2019-04-29T14:09:29.013Z,18.24
2019-04-29T14:10:29.008Z,17.57
2019-04-29T14:11:29.138Z,17.50
2019-04-29T14:13:28.990Z,16.95
2019-04-29T14:15:29.609Z,17.14
2019-04-29T14:16:28.980Z,17.59
2019-04-29T14:17:31.738Z,17.75
2019-04-29T14:18:28.933Z,17.53
2019-04-29T14:19:42.751Z,17.35
2019-04-29T14:20:28.960Z,17.54
2019-04-29T14:21:30.183Z,17.91
2019-04-29T14:22:28.879Z,17.91
2019-04-29T14:23:29.084Z,18.49
2019-04-29T14:24:28.933Z,18.41
2019-04-29T14:25:28.860Z,18.94
2019-04-29T14:26:29.575Z,18.79
2019-04-29T14:27:28.859Z,18.78
2019-04-29T14:28:28.821Z,19.08
2019-04-29T14:29:30.297Z,19.15
2019-04-29T14:30:38.569Z,19.75
2019-04-29T14:31:30.327Z,20.04
2019-04-29T14:32:34.807Z,20.67
2019-04-29T14:33:29.076Z,20.37
2019-04-29T14:34:30.527Z,20.74
2019-04-29T14:38:28.748Z,21.28
2019-04-29T14:39:37.302Z,21.55
2019-04-29T14:40:28.694Z,21.66
2019-04-29T14:43:31.724Z,21.81
2019-04-29T14:45:29.009Z,21.96
2019-04-29T14:46:28.947Z,22.07
2019-04-29T14:47:28.646Z,22.19
2019-04-29T14:48:41.561Z,22.44
2019-04-29T14:50:28.620Z,21.93
2019-04-29T14:51:36.377Z,21.75
2019-04-29T14:52:28.609Z,21.84
2019-04-29T14:53:28.740Z,22.19
2019-04-29T14:54:28.581Z,22.37
2019-04-29T14:55:28.574Z,22.30
2019-04-29T14:56:28.678Z,22.64
2019-04-29T14:57:28.878Z,22.21
2019-04-29T14:58:28.560Z,22.27
2019-04-29T14:59:28.955Z,22.06
2019-04-29T15:00:28.698Z,22.21
2019-04-29T15:01:28.728Z,22.04